Alpine, Pennsylvania
Current Conditions -  °F | °C
As of 12:56 PM on Thursday 23 Oct 2014 (Local Time) from KCXY Reporting Station
Overcast Overcast  
Wind Chill: 59°   Ceiling: 3400
Heat Index: 59°   Visibility: 10mi
Dew Point: 44°   Wind: 18mph
Humidity: 58%   Direction: 330°NNW
Pressure: 29.86"   Gusts: 26mph
Location:  40.1328°N, 76.8833°W
Report Text: KCXY 231656Z 33016G23KT 10SM OVC034 15/07 A2986 RMK AO2 SLP111 T01500067
Loading
Personal Weather Stations






























Interactive Weather Map New forecast layout! Learn more

10-Day Weather Forecast

Advertisements
Track Severe Weather on mobile